LSZQ weather

Public forecast

Using degrees Celsius for public forecast. Weather courtesy of forecast.io.

Closest aviation weather report (METAR) to Bressaucourt Airport

Closest report is Grenchen Airport, 20.3 nm (37.5 km) SE. Retrieved 2020/08/14 02:20 UTC (21 minutes ago):

LSZG 140220Z AUTO 22005KT 9999 -DZ NSC 18/17 Q1017

Closest aviation forecast (TAF) to Bressaucourt Airport

Closest forecast is EuroAirport Basel-Mulhouse-Freiburg Airport, 23.5 nm (43.5 km) ENE. Retrieved 2020-08-14 00:21 UTC (2 hours ago):

TAF GMTA 132300Z 1400/1506 19005KT CAVOK TAF LFSB 132300Z 1400/1424 VRB04KT CAVOK TEMPO 1400/1416 4000 SHRA FEW040 FEW050CB BKN060 PROB30 TEMPO 1406/1409 -TSRA FEW030CB BKN035 PROB40 TEMPO 1409/1415 VRB15G25KT 2500 TSRA SCT040CB